sensor_id;sensor_type;location;lat;lon;timestamp;temperature;humidity
29007;DHT22;16104;48.642;9.008;2023-01-24T00:01:07;4.70;70.50
29007;DHT22;16104;48.642;9.008;2023-01-24T00:06:03;4.70;70.60
29007;DHT22;16104;48.642;9.008;2023-01-24T00:11:07;4.70;70.70
29007;DHT22;16104;48.642;9.008;2023-01-24T00:16:18;4.70;70.70
29007;DHT22;16104;48.642;9.008;2023-01-24T00:21:19;4.70;70.70
29007;DHT22;16104;48.642;9.008;2023-01-24T00:26:15;4.70;70.80
29007;DHT22;16104;48.642;9.008;2023-01-24T00:31:11;4.70;70.70
29007;DHT22;16104;48.642;9.008;2023-01-24T00:36:07;4.70;70.70
29007;DHT22;16104;48.642;9.008;2023-01-24T00:41:03;4.70;70.60
29007;DHT22;16104;48.642;9.008;2023-01-24T00:45:58;4.70;70.60
29007;DHT22;16104;48.642;9.008;2023-01-24T00:50:54;4.70;70.70
29007;DHT22;16104;48.642;9.008;2023-01-24T00:55:49;4.70;70.70
29007;DHT22;16104;48.642;9.008;2023-01-24T02:01:52;4.70;70.70
29007;DHT22;16104;48.642;9.008;2023-01-24T02:07:09;4.70;70.80
29007;DHT22;16104;48.642;9.008;2023-01-24T02:12:24;4.70;70.90
29007;DHT22;16104;48.642;9.008;2023-01-24T03:03:34;4.60;71.10
29007;DHT22;16104;48.642;9.008;2023-01-24T03:08:32;4.70;72.00
29007;DHT22;16104;48.642;9.008;2023-01-24T03:13:28;4.70;71.30
29007;DHT22;16104;48.642;9.008;2023-01-24T04:04:43;4.60;71.60
29007;DHT22;16104;48.642;9.008;2023-01-24T04:09:58;4.60;71.50
29007;DHT22;16104;48.642;9.008;2023-01-24T04:14:54;4.60;71.50
29007;DHT22;16104;48.642;9.008;2023-01-24T04:19:49;4.60;71.60
29007;DHT22;16104;48.642;9.008;2023-01-24T04:24:45;4.60;71.60
29007;DHT22;16104;48.642;9.008;2023-01-24T04:29:40;4.60;72.40
29007;DHT22;16104;48.642;9.008;2023-01-24T04:34:36;4.60;71.70
29007;DHT22;16104;48.642;9.008;2023-01-24T04:39:31;4.60;71.70
29007;DHT22;16104;48.642;9.008;2023-01-24T04:44:27;4.60;71.70
29007;DHT22;16104;48.642;9.008;2023-01-24T04:49:23;4.60;71.60
29007;DHT22;16104;48.642;9.008;2023-01-24T04:54:18;4.60;71.60
29007;DHT22;16104;48.642;9.008;2023-01-24T04:59:14;4.60;71.70
29007;DHT22;16104;48.642;9.008;2023-01-24T05:04:09;4.60;71.70
29007;DHT22;16104;48.642;9.008;2023-01-24T05:09:05;4.60;71.70
29007;DHT22;16104;48.642;9.008;2023-01-24T05:14:00;4.60;71.80
29007;DHT22;16104;48.642;9.008;2023-01-24T05:18:56;4.60;71.90
29007;DHT22;16104;48.642;9.008;2023-01-24T05:23:52;4.60;71.90
29007;DHT22;16104;48.642;9.008;2023-01-24T05:28:49;4.60;71.90
29007;DHT22;16104;48.642;9.008;2023-01-24T05:33:45;4.60;71.90
29007;DHT22;16104;48.642;9.008;2023-01-24T05:38:41;4.60;71.90
29007;DHT22;16104;48.642;9.008;2023-01-24T05:43:37;4.60;72.10
29007;DHT22;16104;48.642;9.008;2023-01-24T05:48:33;4.60;72.10
29007;DHT22;16104;48.642;9.008;2023-01-24T05:53:30;4.60;72.10
29007;DHT22;16104;48.642;9.008;2023-01-24T05:58:28;4.60;72.20
29007;DHT22;16104;48.642;9.008;2023-01-24T06:03:24;4.60;72.20
29007;DHT22;16104;48.642;9.008;2023-01-24T06:08:20;4.60;72.10
29007;DHT22;16104;48.642;9.008;2023-01-24T06:13:16;4.60;72.20
29007;DHT22;16104;48.642;9.008;2023-01-24T06:18:15;4.60;72.40
29007;DHT22;16104;48.642;9.008;2023-01-24T06:23:23;4.60;72.40
29007;DHT22;16104;48.642;9.008;2023-01-24T06:28:19;4.60;72.50
29007;DHT22;16104;48.642;9.008;2023-01-24T06:33:32;4.50;72.40
29007;DHT22;16104;48.642;9.008;2023-01-24T06:38:29;4.50;72.60
29007;DHT22;16104;48.642;9.008;2023-01-24T06:43:24;4.50;72.50
29007;DHT22;16104;48.642;9.008;2023-01-24T06:48:20;4.50;72.50
29007;DHT22;16104;48.642;9.008;2023-01-24T06:53:16;4.50;73.40
29007;DHT22;16104;48.642;9.008;2023-01-24T06:58:11;4.50;72.60
29007;DHT22;16104;48.642;9.008;2023-01-24T07:03:07;4.60;72.60
29007;DHT22;16104;48.642;9.008;2023-01-24T07:08:04;4.60;72.60
29007;DHT22;16104;48.642;9.008;2023-01-24T07:13:00;4.50;72.60
29007;DHT22;16104;48.642;9.008;2023-01-24T07:17:55;4.60;72.60
29007;DHT22;16104;48.642;9.008;2023-01-24T07:22:51;4.60;72.60
29007;DHT22;16104;48.642;9.008;2023-01-24T07:27:47;4.60;72.60
29007;DHT22;16104;48.642;9.008;2023-01-24T07:32:43;4.60;72.70
29007;DHT22;16104;48.642;9.008;2023-01-24T07:37:40;4.60;72.70
29007;DHT22;16104;48.642;9.008;2023-01-24T07:42:36;4.60;72.60
29007;DHT22;16104;48.642;9.008;2023-01-24T07:47:31;4.60;72.50
29007;DHT22;16104;48.642;9.008;2023-01-24T07:52:27;4.60;72.40
29007;DHT22;16104;48.642;9.008;2023-01-24T07:57:22;4.60;72.50
29007;DHT22;16104;48.642;9.008;2023-01-24T08:02:18;4.60;72.50
29007;DHT22;16104;48.642;9.008;2023-01-24T08:07:13;4.70;72.50
29007;DHT22;16104;48.642;9.008;2023-01-24T08:12:12;4.70;72.40
29007;DHT22;16104;48.642;9.008;2023-01-24T08:17:07;4.70;72.30
29007;DHT22;16104;48.642;9.008;2023-01-24T08:22:03;4.70;72.30
29007;DHT22;16104;48.642;9.008;2023-01-24T08:27:00;4.70;72.40
29007;DHT22;16104;48.642;9.008;2023-01-24T08:31:57;4.70;72.40
29007;DHT22;16104;48.642;9.008;2023-01-24T08:36:59;4.70;72.30
29007;DHT22;16104;48.642;9.008;2023-01-24T08:41:55;4.70;72.20
29007;DHT22;16104;48.642;9.008;2023-01-24T08:46:50;4.80;72.20
29007;DHT22;16104;48.642;9.008;2023-01-24T08:51:46;4.80;72.20
29007;DHT22;16104;48.642;9.008;2023-01-24T08:56:42;4.80;72.20
29007;DHT22;16104;48.642;9.008;2023-01-24T09:01:38;4.90;72.20
29007;DHT22;16104;48.642;9.008;2023-01-24T09:06:35;4.90;72.10
29007;DHT22;16104;48.642;9.008;2023-01-24T09:11:31;4.90;72.10
29007;DHT22;16104;48.642;9.008;2023-01-24T09:16:26;4.90;72.10
29007;DHT22;16104;48.642;9.008;2023-01-24T09:21:22;5.00;72.30
29007;DHT22;16104;48.642;9.008;2023-01-24T09:26:18;5.00;72.10
29007;DHT22;16104;48.642;9.008;2023-01-24T09:31:13;5.00;72.00
29007;DHT22;16104;48.642;9.008;2023-01-24T09:36:09;5.10;72.00
29007;DHT22;16104;48.642;9.008;2023-01-24T09:41:29;5.10;72.00
29007;DHT22;16104;48.642;9.008;2023-01-24T09:46:32;5.10;72.00
29007;DHT22;16104;48.642;9.008;2023-01-24T09:51:31;5.10;71.90
29007;DHT22;16104;48.642;9.008;2023-01-24T09:56:34;5.20;71.90
29007;DHT22;16104;48.642;9.008;2023-01-24T10:01:30;5.20;71.80
29007;DHT22;16104;48.642;9.008;2023-01-24T10:06:27;5.20;71.80
29007;DHT22;16104;48.642;9.008;2023-01-24T10:26:51;5.30;71.70
29007;DHT22;16104;48.642;9.008;2023-01-24T10:36:52;5.30;71.60
29007;DHT22;16104;48.642;9.008;2023-01-24T10:41:49;5.30;71.50
29007;DHT22;16104;48.642;9.008;2023-01-24T10:51:40;5.40;71.60
29007;DHT22;16104;48.642;9.008;2023-01-24T10:56:38;5.40;71.50
29007;DHT22;16104;48.642;9.008;2023-01-24T11:01:59;5.40;71.60
29007;DHT22;16104;48.642;9.008;2023-01-24T11:06:54;5.40;71.60
29007;DHT22;16104;48.642;9.008;2023-01-24T11:11:53;5.40;71.40
29007;DHT22;16104;48.642;9.008;2023-01-24T11:16:55;5.50;71.40
29007;DHT22;16104;48.642;9.008;2023-01-24T11:21:57;5.50;71.40
29007;DHT22;16104;48.642;9.008;2023-01-24T11:27:03;5.50;71.40
29007;DHT22;16104;48.642;9.008;2023-01-24T11:32:36;5.60;71.40
29007;DHT22;16104;48.642;9.008;2023-01-24T11:58:51;5.70;71.00
29007;DHT22;16104;48.642;9.008;2023-01-24T12:04:16;5.70;71.00
29007;DHT22;16104;48.642;9.008;2023-01-24T12:09:20;5.70;71.00
29007;DHT22;16104;48.642;9.008;2023-01-24T12:25:22;5.80;70.90
29007;DHT22;16104;48.642;9.008;2023-01-24T12:30:25;5.80;70.70
29007;DHT22;16104;48.642;9.008;2023-01-24T12:35:31;5.90;70.80
29007;DHT22;16104;48.642;9.008;2023-01-24T12:40:50;5.90;70.50
29007;DHT22;16104;48.642;9.008;2023-01-24T12:56:23;5.90;70.50
29007;DHT22;16104;48.642;9.008;2023-01-24T13:11:31;5.90;70.50
29007;DHT22;16104;48.642;9.008;2023-01-24T13:32:22;6.00;70.50
29007;DHT22;16104;48.642;9.008;2023-01-24T13:42:23;6.00;70.40
29007;DHT22;16104;48.642;9.008;2023-01-24T13:52:36;6.00;70.50
29007;DHT22;16104;48.642;9.008;2023-01-24T13:57:35;6.00;70.30
29007;DHT22;16104;48.642;9.008;2023-01-24T14:02:36;6.00;70.20
29007;DHT22;16104;48.642;9.008;2023-01-24T14:07:39;6.00;70.10
29007;DHT22;16104;48.642;9.008;2023-01-24T14:12:39;6.00;70.10
29007;DHT22;16104;48.642;9.008;2023-01-24T14:22:44;6.00;70.20
29007;DHT22;16104;48.642;9.008;2023-01-24T14:28:02;6.00;70.10
29007;DHT22;16104;48.642;9.008;2023-01-24T14:33:04;5.90;70.00
29007;DHT22;16104;48.642;9.008;2023-01-24T14:38:17;5.90;70.00
29007;DHT22;16104;48.642;9.008;2023-01-24T14:43:13;5.90;70.00
29007;DHT22;16104;48.642;9.008;2023-01-24T14:48:12;5.90;70.10
29007;DHT22;16104;48.642;9.008;2023-01-24T14:53:27;5.90;70.20
29007;DHT22;16104;48.642;9.008;2023-01-24T14:58:25;5.80;70.10
29007;DHT22;16104;48.642;9.008;2023-01-24T15:03:27;5.80;70.10
29007;DHT22;16104;48.642;9.008;2023-01-24T15:08:23;5.80;70.10
29007;DHT22;16104;48.642;9.008;2023-01-24T15:18:40;5.80;70.30
29007;DHT22;16104;48.642;9.008;2023-01-24T15:23:36;5.70;70.40
29007;DHT22;16104;48.642;9.008;2023-01-24T15:28:32;5.70;70.30
29007;DHT22;16104;48.642;9.008;2023-01-24T15:33:41;5.70;70.40
29007;DHT22;16104;48.642;9.008;2023-01-24T15:38:45;5.70;70.60
29007;DHT22;16104;48.642;9.008;2023-01-24T15:44:10;5.70;70.60
29007;DHT22;16104;48.642;9.008;2023-01-24T15:49:18;5.70;70.60
29007;DHT22;16104;48.642;9.008;2023-01-24T15:54:14;5.70;70.70
29007;DHT22;16104;48.642;9.008;2023-01-24T15:59:16;5.60;70.70
29007;DHT22;16104;48.642;9.008;2023-01-24T16:04:16;5.60;70.90
29007;DHT22;16104;48.642;9.008;2023-01-24T16:09:12;5.60;71.00
29007;DHT22;16104;48.642;9.008;2023-01-24T16:14:13;5.60;71.00
29007;DHT22;16104;48.642;9.008;2023-01-24T16:19:18;5.60;71.20
29007;DHT22;16104;48.642;9.008;2023-01-24T16:24:14;5.50;71.20
29007;DHT22;16104;48.642;9.008;2023-01-24T16:29:14;5.60;71.20
29007;DHT22;16104;48.642;9.008;2023-01-24T16:34:11;5.60;71.20
29007;DHT22;16104;48.642;9.008;2023-01-24T16:39:07;5.60;71.20
29007;DHT22;16104;48.642;9.008;2023-01-24T16:44:02;5.60;71.20
29007;DHT22;16104;48.642;9.008;2023-01-24T16:48:58;5.50;71.20
29007;DHT22;16104;48.642;9.008;2023-01-24T16:53:57;5.50;71.20
29007;DHT22;16104;48.642;9.008;2023-01-24T16:58:55;5.50;71.30
29007;DHT22;16104;48.642;9.008;2023-01-24T17:03:51;5.50;71.30
29007;DHT22;16104;48.642;9.008;2023-01-24T17:08:51;5.50;71.40
29007;DHT22;16104;48.642;9.008;2023-01-24T17:13:46;5.40;71.40
29007;DHT22;16104;48.642;9.008;2023-01-24T17:18:42;5.50;71.50
29007;DHT22;16104;48.642;9.008;2023-01-24T17:23:38;5.40;71.60
29007;DHT22;16104;48.642;9.008;2023-01-24T17:28:35;5.40;71.50
29007;DHT22;16104;48.642;9.008;2023-01-24T17:33:31;5.40;71.70
29007;DHT22;16104;48.642;9.008;2023-01-24T17:38:27;5.40;71.70
29007;DHT22;16104;48.642;9.008;2023-01-24T17:43:22;5.40;71.70
29007;DHT22;16104;48.642;9.008;2023-01-24T17:48:19;5.40;71.70
29007;DHT22;16104;48.642;9.008;2023-01-24T17:53:16;5.40;71.70
29007;DHT22;16104;48.642;9.008;2023-01-24T17:58:12;5.40;71.80
29007;DHT22;16104;48.642;9.008;2023-01-24T18:03:08;5.40;71.80
29007;DHT22;16104;48.642;9.008;2023-01-24T18:08:06;5.30;71.70
29007;DHT22;16104;48.642;9.008;2023-01-24T18:13:02;5.40;71.90
29007;DHT22;16104;48.642;9.008;2023-01-24T18:17:57;5.40;71.90
29007;DHT22;16104;48.642;9.008;2023-01-24T18:22:53;5.30;71.70
29007;DHT22;16104;48.642;9.008;2023-01-24T18:27:49;5.30;71.90
29007;DHT22;16104;48.642;9.008;2023-01-24T18:32:44;5.30;71.90
29007;DHT22;16104;48.642;9.008;2023-01-24T18:37:40;5.30;71.90
29007;DHT22;16104;48.642;9.008;2023-01-24T18:42:36;5.30;71.90
29007;DHT22;16104;48.642;9.008;2023-01-24T18:47:32;5.30;72.10
29007;DHT22;16104;48.642;9.008;2023-01-24T18:52:27;5.20;72.20
29007;DHT22;16104;48.642;9.008;2023-01-24T18:57:23;5.30;72.10
29007;DHT22;16104;48.642;9.008;2023-01-24T19:02:18;5.30;72.20
29007;DHT22;16104;48.642;9.008;2023-01-24T19:07:14;5.30;72.20
29007;DHT22;16104;48.642;9.008;2023-01-24T19:12:09;5.30;72.10
29007;DHT22;16104;48.642;9.008;2023-01-24T19:17:05;5.20;72.00
29007;DHT22;16104;48.642;9.008;2023-01-24T19:22:02;5.20;72.30
29007;DHT22;16104;48.642;9.008;2023-01-24T19:26:58;5.30;72.20
29007;DHT22;16104;48.642;9.008;2023-01-24T19:31:54;5.30;72.30
29007;DHT22;16104;48.642;9.008;2023-01-24T19:36:49;5.20;72.30
29007;DHT22;16104;48.642;9.008;2023-01-24T19:41:45;5.20;72.40
29007;DHT22;16104;48.642;9.008;2023-01-24T19:46:41;5.20;72.40
29007;DHT22;16104;48.642;9.008;2023-01-24T19:51:36;5.20;72.40
29007;DHT22;16104;48.642;9.008;2023-01-24T19:56:32;5.20;72.40
29007;DHT22;16104;48.642;9.008;2023-01-24T20:01:28;5.20;72.50
29007;DHT22;16104;48.642;9.008;2023-01-24T20:06:24;5.20;72.50
29007;DHT22;16104;48.642;9.008;2023-01-24T20:11:20;5.20;72.50
29007;DHT22;16104;48.642;9.008;2023-01-24T20:16:19;5.30;72.50
29007;DHT22;16104;48.642;9.008;2023-01-24T20:21:15;5.20;72.50
29007;DHT22;16104;48.642;9.008;2023-01-24T20:26:11;5.30;72.40
29007;DHT22;16104;48.642;9.008;2023-01-24T20:31:08;5.30;72.50
29007;DHT22;16104;48.642;9.008;2023-01-24T20:36:07;5.20;72.50
29007;DHT22;16104;48.642;9.008;2023-01-24T20:41:06;5.30;72.50
29007;DHT22;16104;48.642;9.008;2023-01-24T20:46:04;5.20;72.50
29007;DHT22;16104;48.642;9.008;2023-01-24T20:51:00;5.20;72.50
29007;DHT22;16104;48.642;9.008;2023-01-24T20:55:59;5.20;72.40
29007;DHT22;16104;48.642;9.008;2023-01-24T21:01:02;5.20;72.60
29007;DHT22;16104;48.642;9.008;2023-01-24T21:06:06;5.20;72.70
29007;DHT22;16104;48.642;9.008;2023-01-24T21:11:02;5.10;72.60
29007;DHT22;16104;48.642;9.008;2023-01-24T21:16:09;5.10;72.50
29007;DHT22;16104;48.642;9.008;2023-01-24T21:21:07;5.10;72.80
29007;DHT22;16104;48.642;9.008;2023-01-24T21:26:07;5.10;72.80
29007;DHT22;16104;48.642;9.008;2023-01-24T21:31:25;5.10;73.00
29007;DHT22;16104;48.642;9.008;2023-01-24T21:36:24;5.00;72.80
29007;DHT22;16104;48.642;9.008;2023-01-24T21:41:32;5.00;72.70
29007;DHT22;16104;48.642;9.008;2023-01-24T21:46:55;5.00;72.90
29007;DHT22;16104;48.642;9.008;2023-01-24T21:51:56;5.10;73.00
29007;DHT22;16104;48.642;9.008;2023-01-24T21:56:57;5.00;72.80
29007;DHT22;16104;48.642;9.008;2023-01-24T22:02:28;5.10;73.00
29007;DHT22;16104;48.642;9.008;2023-01-24T22:07:31;5.10;73.10
29007;DHT22;16104;48.642;9.008;2023-01-24T22:12:43;5.10;73.00
29007;DHT22;16104;48.642;9.008;2023-01-24T22:17:45;5.00;73.10
29007;DHT22;16104;48.642;9.008;2023-01-24T22:27:51;5.10;73.00
29007;DHT22;16104;48.642;9.008;2023-01-24T22:32:50;5.00;72.70
29007;DHT22;16104;48.642;9.008;2023-01-24T22:38:13;5.00;72.80
29007;DHT22;16104;48.642;9.008;2023-01-24T22:43:35;5.00;73.20
29007;DHT22;16104;48.642;9.008;2023-01-24T22:48:56;5.00;73.10
29007;DHT22;16104;48.642;9.008;2023-01-24T22:54:21;5.00;73.00
29007;DHT22;16104;48.642;9.008;2023-01-24T23:04:56;5.00;73.20
29007;DHT22;16104;48.642;9.008;2023-01-24T23:10:05;5.00;72.90
29007;DHT22;16104;48.642;9.008;2023-01-24T23:15:14;5.00;73.10
29007;DHT22;16104;48.642;9.008;2023-01-24T23:20:34;5.00;73.00
29007;DHT22;16104;48.642;9.008;2023-01-24T23:25:48;5.00;73.10
29007;DHT22;16104;48.642;9.008;2023-01-24T23:35:40;4.90;73.00
29007;DHT22;16104;48.642;9.008;2023-01-24T23:40:35;4.90;73.00
29007;DHT22;16104;48.642;9.008;2023-01-24T23:45:31;4.90;73.10
29007;DHT22;16104;48.642;9.008;2023-01-24T23:50:26;4.90;73.10
29007;DHT22;16104;48.642;9.008;2023-01-24T23:55:22;4.90;73.00
